EST,Max TemperatureF,Mean TemperatureF,Min TemperatureF,Max Dew PointF,MeanDew PointF,Min DewpointF,Max Humidity, Mean Humidity, Min Humidity, Max Sea Level PressureIn, Mean Sea Level PressureIn, Min Sea Level PressureIn, Max VisibilityMiles, Mean VisibilityMiles, Min VisibilityMiles, Max Wind SpeedMPH, Mean Wind SpeedMPH, Max Gust SpeedMPH,PrecipitationIn, CloudCover, Events, WindDirDegrees
2014-1-1,48,38,28,30,27,21,100,75,37,30.43,30.32,30.16,10,10,10,8,1,,0.00,0,,177
2014-1-2,46,39,32,43,36,28,100,90,66,30.15,29.85,29.62,10,8,2,10,1,21,0.29,5,Rain,264
2014-1-3,37,27,17,32,12,5,100,56,32,30.48,30.21,29.68,10,10,10,20,10,29,0.00,0,,320
2014-1-4,35,25,15,21,15,10,100,63,35,30.52,30.43,30.29,10,10,10,6,1,,0.00,4,,182
2014-1-5,50,42,33,46,35,21,100,84,60,30.29,30.08,29.78,10,9,2,6,1,,0.00,7,Rain,24
2014-1-6,55,34,14,55,28,-9,100,70,32,30.19,29.83,29.63,10,9,0,20,8,34,0.56,4,Fog-Rain,280
2014-1-7,23,16,8,10,-4,-9,86,46,28,30.49,30.39,30.19,10,10,10,10,6,16,0.00,0,,289
2014-1-8,41,26,12,18,12,9,93,64,26,30.60,30.52,30.47,10,10,10,8,1,,0.00,0,,173
2014-1-9,50,36,23,28,17,5,86,51,18,30.59,30.53,30.49,10,10,10,7,1,,0.00,2,,140
2014-1-10,41,38,35,37,34,27,100,89,57,30.48,30.32,30.12,10,7,0,7,2,,0.41,8,Fog-Rain-Snow,26
2014-1-11,62,50,37,63,50,37,100,99,88,30.11,29.79,29.58,10,6,0,18,4,29,0.81,7,Fog-Rain-Thunderstorm,224
2014-1-12,55,44,32,46,33,27,100,65,35,30.18,30.00,29.70,10,10,10,10,4,21,0.00,1,,280
2014-1-13,59,44,30,39,34,30,100,68,39,30.17,30.09,29.96,10,10,10,17,3,22,0.00,0,,200
2014-1-14,51,42,32,46,42,32,100,93,62,29.98,29.88,29.80,10,7,0,8,2,17,0.38,6,Fog-Rain,259
2014-1-15,55,42,30,46,34,30,100,83,44,29.98,29.93,29.84,10,6,0,10,2,17,0.00,4,Fog-Rain-Snow-Thunderstorm,288
2014-1-16,41,34,28,34,27,18,100,81,39,30.04,29.98,29.93,10,9,1,9,3,16,0.06,3,Rain-Snow,332
2014-1-17,51,38,24,32,27,21,93,62,40,30.02,29.93,29.85,10,10,10,13,4,20,0.00,1,,209
2014-1-18,41,32,23,30,17,9,86,59,35,30.06,29.97,29.86,10,10,10,15,5,23,0.00,2,,292
2014-1-19,50,39,28,27,22,18,80,54,37,29.99,29.94,29.89,10,10,10,13,5,24,0.00,2,,238
2014-1-20,62,45,28,28,25,21,93,56,22,29.91,29.84,29.77,10,10,10,16,4,23,0.00,0,,238
2014-1-21,46,36,26,32,29,23,100,83,57,29.85,29.71,29.57,10,9,2,16,5,25,0.00,4,Rain-Snow,23
2014-1-22,28,22,17,27,11,0,100,64,31,30.11,29.99,29.85,10,10,4,14,5,22,0.00,3,Snow,333
2014-1-23,33,24,14,18,10,1,100,59,35,30.46,30.25,30.10,10,10,10,14,3,23,0.00,1,,309
2014-1-24,26,18,10,1,-4,-8,53,40,22,30.60,30.46,30.23,10,10,10,12,7,17,0.00,0,,292
2014-1-25,39,29,19,16,4,-4,48,35,26,30.22,29.85,29.63,10,10,10,20,11,31,0.00,4,,226
2014-1-26,51,34,17,28,16,9,86,46,19,29.97,29.88,29.80,10,10,10,18,6,23,0.00,0,,218
2014-1-27,62,46,30,32,26,-2,61,46,23,30.15,29.88,29.78,10,10,10,14,9,23,0.00,1,,272
2014-1-28,30,24,17,18,5,-6,93,52,23,30.35,30.26,30.14,10,8,2,16,9,22,0.00,7,Snow,10
2014-1-29,26,17,8,14,7,-4,93,65,26,30.37,30.28,30.18,10,10,7,9,3,,0.00,2,Snow,350
2014-1-30,35,18,0,10,4,-2,92,62,24,30.43,30.34,30.23,10,10,10,9,1,,0.00,0,,163
2014-1-31,51,32,12,21,14,9,100,59,19,30.23,30.19,30.14,10,10,10,7,1,,0.00,0,,196